sensor_id;sensor_type;location;lat;lon;timestamp;P1;durP1;ratioP1;P2;durP2;ratioP2
53263;SDS011;39153;52.680;6.172;2022-08-01T00:00:41;10.40;;;6.32;;
53263;SDS011;39153;52.680;6.172;2022-08-01T00:03:06;8.93;;;5.53;;
53263;SDS011;39153;52.680;6.172;2022-08-01T00:05:32;9.48;;;5.32;;
53263;SDS011;39153;52.680;6.172;2022-08-01T00:07:58;8.23;;;5.10;;
53263;SDS011;39153;52.680;6.172;2022-08-01T00:10:24;7.97;;;5.30;;
53263;SDS011;39153;52.680;6.172;2022-08-01T00:12:50;7.40;;;4.88;;
53263;SDS011;39153;52.680;6.172;2022-08-01T00:15:16;7.82;;;5.05;;
53263;SDS011;39153;52.680;6.172;2022-08-01T00:17:42;8.82;;;5.47;;
53263;SDS011;39153;52.680;6.172;2022-08-01T00:20:09;9.25;;;5.47;;
53263;SDS011;39153;52.680;6.172;2022-08-01T00:22:36;7.15;;;5.40;;
53263;SDS011;39153;52.680;6.172;2022-08-01T00:25:03;6.40;;;4.97;;
53263;SDS011;39153;52.680;6.172;2022-08-01T00:27:30;7.45;;;5.28;;
53263;SDS011;39153;52.680;6.172;2022-08-01T00:29:56;8.35;;;5.70;;
53263;SDS011;39153;52.680;6.172;2022-08-01T00:32:22;7.20;;;5.45;;
53263;SDS011;39153;52.680;6.172;2022-08-01T00:34:48;7.95;;;5.45;;
53263;SDS011;39153;52.680;6.172;2022-08-01T00:37:13;10.38;;;6.13;;
53263;SDS011;39153;52.680;6.172;2022-08-01T00:39:39;7.78;;;5.50;;
53263;SDS011;39153;52.680;6.172;2022-08-01T00:42:11;7.57;;;5.22;;
53263;SDS011;39153;52.680;6.172;2022-08-01T00:44:38;9.73;;;5.40;;
53263;SDS011;39153;52.680;6.172;2022-08-01T00:47:04;8.85;;;5.40;;
53263;SDS011;39153;52.680;6.172;2022-08-01T00:49:31;7.75;;;5.70;;
53263;SDS011;39153;52.680;6.172;2022-08-01T00:51:56;6.63;;;5.30;;
53263;SDS011;39153;52.680;6.172;2022-08-01T00:54:23;7.68;;;5.32;;
53263;SDS011;39153;52.680;6.172;2022-08-01T00:56:50;6.40;;;4.82;;
53263;SDS011;39153;52.680;6.172;2022-08-01T00:59:16;8.27;;;5.18;;
53263;SDS011;39153;52.680;6.172;2022-08-01T01:01:43;9.48;;;4.78;;
53263;SDS011;39153;52.680;6.172;2022-08-01T01:04:09;7.50;;;4.22;;
53263;SDS011;39153;52.680;6.172;2022-08-01T01:06:44;6.03;;;4.10;;
53263;SDS011;39153;52.680;6.172;2022-08-01T01:12:22;7.38;;;4.03;;
53263;SDS011;39153;52.680;6.172;2022-08-01T01:17:27;7.40;;;4.40;;
53263;SDS011;39153;52.680;6.172;2022-08-01T01:19:58;5.57;;;3.87;;
53263;SDS011;39153;52.680;6.172;2022-08-01T01:22:29;5.78;;;4.10;;
53263;SDS011;39153;52.680;6.172;2022-08-01T01:25:06;5.43;;;3.42;;
53263;SDS011;39153;52.680;6.172;2022-08-01T01:30:32;5.53;;;4.20;;
53263;SDS011;39153;52.680;6.172;2022-08-01T01:33:00;6.18;;;4.13;;
53263;SDS011;39153;52.680;6.172;2022-08-01T01:35:29;9.27;;;4.18;;
53263;SDS011;39153;52.680;6.172;2022-08-01T01:38:07;7.05;;;4.40;;
53263;SDS011;39153;52.680;6.172;2022-08-01T01:40:38;5.95;;;4.25;;
53263;SDS011;39153;52.680;6.172;2022-08-01T01:43:06;6.78;;;4.43;;
53263;SDS011;39153;52.680;6.172;2022-08-01T01:45:36;7.10;;;4.78;;
53263;SDS011;39153;52.680;6.172;2022-08-01T01:48:03;7.22;;;4.25;;
53263;SDS011;39153;52.680;6.172;2022-08-01T01:50:31;5.68;;;4.45;;
53263;SDS011;39153;52.680;6.172;2022-08-01T01:52:58;5.95;;;4.85;;
53263;SDS011;39153;52.680;6.172;2022-08-01T01:55:25;6.75;;;4.80;;
53263;SDS011;39153;52.680;6.172;2022-08-01T01:57:51;6.07;;;4.47;;
53263;SDS011;39153;52.680;6.172;2022-08-01T02:00:18;6.32;;;4.32;;
53263;SDS011;39153;52.680;6.172;2022-08-01T02:02:45;6.85;;;4.20;;
53263;SDS011;39153;52.680;6.172;2022-08-01T02:05:12;6.88;;;4.88;;
53263;SDS011;39153;52.680;6.172;2022-08-01T02:07:38;5.80;;;4.65;;
53263;SDS011;39153;52.680;6.172;2022-08-01T02:10:05;8.25;;;4.90;;
53263;SDS011;39153;52.680;6.172;2022-08-01T02:12:33;6.80;;;4.25;;
53263;SDS011;39153;52.680;6.172;2022-08-01T02:15:02;6.22;;;4.50;;
53263;SDS011;39153;52.680;6.172;2022-08-01T02:17:29;5.70;;;3.97;;
53263;SDS011;39153;52.680;6.172;2022-08-01T02:19:56;6.10;;;3.75;;
53263;SDS011;39153;52.680;6.172;2022-08-01T02:25:39;3.38;;;2.45;;
53263;SDS011;39153;52.680;6.172;2022-08-01T02:28:07;3.53;;;1.83;;
53263;SDS011;39153;52.680;6.172;2022-08-01T02:30:36;3.50;;;2.15;;
53263;SDS011;39153;52.680;6.172;2022-08-01T02:33:07;5.45;;;2.42;;
53263;SDS011;39153;52.680;6.172;2022-08-01T02:35:38;5.25;;;2.80;;
53263;SDS011;39153;52.680;6.172;2022-08-01T02:38:06;6.35;;;2.90;;
53263;SDS011;39153;52.680;6.172;2022-08-01T02:40:36;5.28;;;3.10;;
53263;SDS011;39153;52.680;6.172;2022-08-01T02:43:05;5.30;;;2.90;;
53263;SDS011;39153;52.680;6.172;2022-08-01T02:45:33;6.32;;;3.17;;
53263;SDS011;39153;52.680;6.172;2022-08-01T02:48:05;5.18;;;3.13;;
53263;SDS011;39153;52.680;6.172;2022-08-01T02:50:39;7.10;;;3.38;;
53263;SDS011;39153;52.680;6.172;2022-08-01T02:53:09;7.22;;;3.78;;
53263;SDS011;39153;52.680;6.172;2022-08-01T02:55:40;9.02;;;4.35;;
53263;SDS011;39153;52.680;6.172;2022-08-01T02:58:08;8.23;;;4.25;;
53263;SDS011;39153;52.680;6.172;2022-08-01T03:00:35;5.32;;;4.00;;
53263;SDS011;39153;52.680;6.172;2022-08-01T03:03:02;8.77;;;4.30;;
53263;SDS011;39153;52.680;6.172;2022-08-01T03:05:30;6.25;;;3.90;;
53263;SDS011;39153;52.680;6.172;2022-08-01T03:07:57;7.32;;;4.35;;
53263;SDS011;39153;52.680;6.172;2022-08-01T03:10:26;6.40;;;4.18;;
53263;SDS011;39153;52.680;6.172;2022-08-01T03:12:54;6.88;;;3.83;;
53263;SDS011;39153;52.680;6.172;2022-08-01T03:15:22;6.88;;;4.30;;
53263;SDS011;39153;52.680;6.172;2022-08-01T03:17:51;9.43;;;5.15;;
53263;SDS011;39153;52.680;6.172;2022-08-01T03:20:20;6.78;;;4.70;;
53263;SDS011;39153;52.680;6.172;2022-08-01T03:22:49;7.50;;;4.65;;
53263;SDS011;39153;52.680;6.172;2022-08-01T03:25:18;10.70;;;4.72;;
53263;SDS011;39153;52.680;6.172;2022-08-01T03:27:45;7.90;;;4.70;;
53263;SDS011;39153;52.680;6.172;2022-08-01T03:30:15;7.28;;;4.85;;
53263;SDS011;39153;52.680;6.172;2022-08-01T03:32:41;6.22;;;4.68;;
53263;SDS011;39153;52.680;6.172;2022-08-01T03:35:07;6.38;;;4.63;;
53263;SDS011;39153;52.680;6.172;2022-08-01T03:37:37;7.13;;;4.32;;
53263;SDS011;39153;52.680;6.172;2022-08-01T03:40:11;7.47;;;3.90;;
53263;SDS011;39153;52.680;6.172;2022-08-01T03:42:46;5.53;;;3.33;;
53263;SDS011;39153;52.680;6.172;2022-08-01T03:45:49;7.80;;;3.40;;
53263;SDS011;39153;52.680;6.172;2022-08-01T03:48:16;8.18;;;3.15;;
53263;SDS011;39153;52.680;6.172;2022-08-01T03:50:44;6.57;;;3.10;;
53263;SDS011;39153;52.680;6.172;2022-08-01T03:53:13;4.30;;;2.85;;
53263;SDS011;39153;52.680;6.172;2022-08-01T03:55:41;4.50;;;2.55;;
53263;SDS011;39153;52.680;6.172;2022-08-01T03:58:08;4.85;;;2.50;;
53263;SDS011;39153;52.680;6.172;2022-08-01T04:00:35;5.03;;;3.30;;
53263;SDS011;39153;52.680;6.172;2022-08-01T04:03:04;5.70;;;2.97;;
53263;SDS011;39153;52.680;6.172;2022-08-01T04:05:31;8.45;;;2.28;;
53263;SDS011;39153;52.680;6.172;2022-08-01T04:07:57;5.20;;;2.47;;
53263;SDS011;39153;52.680;6.172;2022-08-01T04:10:24;4.50;;;2.42;;
53263;SDS011;39153;52.680;6.172;2022-08-01T04:12:50;7.72;;;2.72;;
53263;SDS011;39153;52.680;6.172;2022-08-01T04:15:16;5.40;;;2.58;;
53263;SDS011;39153;52.680;6.172;2022-08-01T04:17:42;5.43;;;2.25;;
53263;SDS011;39153;52.680;6.172;2022-08-01T04:20:08;7.45;;;2.30;;
53263;SDS011;39153;52.680;6.172;2022-08-01T04:22:36;5.28;;;2.45;;
53263;SDS011;39153;52.680;6.172;2022-08-01T04:25:03;6.63;;;2.70;;
53263;SDS011;39153;52.680;6.172;2022-08-01T04:27:35;6.97;;;2.63;;
53263;SDS011;39153;52.680;6.172;2022-08-01T04:30:05;6.97;;;2.60;;
53263;SDS011;39153;52.680;6.172;2022-08-01T04:32:33;6.40;;;2.45;;
53263;SDS011;39153;52.680;6.172;2022-08-01T04:35:02;5.60;;;2.33;;
53263;SDS011;39153;52.680;6.172;2022-08-01T04:37:32;3.95;;;2.30;;
53263;SDS011;39153;52.680;6.172;2022-08-01T04:40:02;7.10;;;2.70;;
53263;SDS011;39153;52.680;6.172;2022-08-01T04:42:31;6.95;;;2.80;;
53263;SDS011;39153;52.680;6.172;2022-08-01T04:44:59;5.72;;;3.00;;
53263;SDS011;39153;52.680;6.172;2022-08-01T04:47:25;7.30;;;3.15;;
53263;SDS011;39153;52.680;6.172;2022-08-01T04:49:51;7.43;;;2.95;;
53263;SDS011;39153;52.680;6.172;2022-08-01T04:52:18;6.15;;;3.03;;
53263;SDS011;39153;52.680;6.172;2022-08-01T04:54:44;7.20;;;3.33;;
53263;SDS011;39153;52.680;6.172;2022-08-01T04:57:11;8.07;;;3.30;;
53263;SDS011;39153;52.680;6.172;2022-08-01T04:59:38;9.63;;;2.97;;
53263;SDS011;39153;52.680;6.172;2022-08-01T05:02:09;6.38;;;3.13;;
53263;SDS011;39153;52.680;6.172;2022-08-01T05:04:40;7.45;;;2.88;;
53263;SDS011;39153;52.680;6.172;2022-08-01T05:07:07;6.25;;;3.17;;
53263;SDS011;39153;52.680;6.172;2022-08-01T05:09:33;8.10;;;3.28;;
53263;SDS011;39153;52.680;6.172;2022-08-01T05:11:59;7.40;;;3.13;;
53263;SDS011;39153;52.680;6.172;2022-08-01T05:14:27;10.85;;;3.42;;
53263;SDS011;39153;52.680;6.172;2022-08-01T05:16:53;8.10;;;3.80;;
53263;SDS011;39153;52.680;6.172;2022-08-01T05:19:19;12.25;;;3.92;;
53263;SDS011;39153;52.680;6.172;2022-08-01T05:21:45;7.85;;;3.60;;
53263;SDS011;39153;52.680;6.172;2022-08-01T05:24:11;12.32;;;4.07;;
53263;SDS011;39153;52.680;6.172;2022-08-01T05:26:38;10.85;;;3.75;;
53263;SDS011;39153;52.680;6.172;2022-08-01T05:29:03;11.77;;;3.70;;
53263;SDS011;39153;52.680;6.172;2022-08-01T05:31:29;10.23;;;3.63;;
53263;SDS011;39153;52.680;6.172;2022-08-01T05:33:59;10.80;;;3.47;;
53263;SDS011;39153;52.680;6.172;2022-08-01T05:36:25;12.52;;;4.10;;
53263;SDS011;39153;52.680;6.172;2022-08-01T05:38:51;11.82;;;3.53;;
53263;SDS011;39153;52.680;6.172;2022-08-01T05:41:17;11.75;;;3.80;;
53263;SDS011;39153;52.680;6.172;2022-08-01T05:43:43;12.25;;;3.47;;
53263;SDS011;39153;52.680;6.172;2022-08-01T05:46:08;11.73;;;3.85;;
53263;SDS011;39153;52.680;6.172;2022-08-01T05:48:34;15.20;;;3.75;;
53263;SDS011;39153;52.680;6.172;2022-08-01T05:51:00;11.63;;;3.70;;
53263;SDS011;39153;52.680;6.172;2022-08-01T05:53:26;12.38;;;3.45;;
53263;SDS011;39153;52.680;6.172;2022-08-01T05:55:51;14.35;;;3.60;;
53263;SDS011;39153;52.680;6.172;2022-08-01T05:58:17;10.45;;;2.80;;
53263;SDS011;39153;52.680;6.172;2022-08-01T06:00:43;12.32;;;3.28;;
53263;SDS011;39153;52.680;6.172;2022-08-01T06:03:08;11.30;;;3.15;;
53263;SDS011;39153;52.680;6.172;2022-08-01T06:05:36;17.60;;;4.05;;
53263;SDS011;39153;52.680;6.172;2022-08-01T06:08:02;8.50;;;3.35;;
53263;SDS011;39153;52.680;6.172;2022-08-01T06:10:28;13.23;;;3.45;;
53263;SDS011;39153;52.680;6.172;2022-08-01T06:12:54;14.18;;;3.63;;
53263;SDS011;39153;52.680;6.172;2022-08-01T06:15:20;13.00;;;3.45;;
53263;SDS011;39153;52.680;6.172;2022-08-01T06:17:46;15.07;;;4.05;;
53263;SDS011;39153;52.680;6.172;2022-08-01T06:20:11;15.00;;;3.75;;
53263;SDS011;39153;52.680;6.172;2022-08-01T06:22:37;13.80;;;3.33;;
53263;SDS011;39153;52.680;6.172;2022-08-01T06:25:03;11.77;;;3.20;;
53263;SDS011;39153;52.680;6.172;2022-08-01T06:27:29;12.85;;;3.25;;
53263;SDS011;39153;52.680;6.172;2022-08-01T06:29:55;12.95;;;3.08;;
53263;SDS011;39153;52.680;6.172;2022-08-01T06:32:21;14.07;;;3.20;;
53263;SDS011;39153;52.680;6.172;2022-08-01T06:34:48;13.30;;;3.38;;
53263;SDS011;39153;52.680;6.172;2022-08-01T06:37:14;11.40;;;3.15;;
53263;SDS011;39153;52.680;6.172;2022-08-01T06:39:40;11.48;;;3.30;;
53263;SDS011;39153;52.680;6.172;2022-08-01T06:42:07;13.35;;;3.63;;
53263;SDS011;39153;52.680;6.172;2022-08-01T06:44:34;13.10;;;3.22;;
53263;SDS011;39153;52.680;6.172;2022-08-01T06:47:00;13.95;;;3.50;;
53263;SDS011;39153;52.680;6.172;2022-08-01T06:49:25;15.40;;;3.50;;
53263;SDS011;39153;52.680;6.172;2022-08-01T06:51:51;12.63;;;2.95;;
53263;SDS011;39153;52.680;6.172;2022-08-01T06:54:17;12.35;;;2.85;;
53263;SDS011;39153;52.680;6.172;2022-08-01T06:56:43;17.08;;;3.30;;
53263;SDS011;39153;52.680;6.172;2022-08-01T06:59:08;8.40;;;2.80;;
53263;SDS011;39153;52.680;6.172;2022-08-01T07:01:34;10.27;;;2.97;;
53263;SDS011;39153;52.680;6.172;2022-08-01T07:04:00;14.75;;;3.20;;
53263;SDS011;39153;52.680;6.172;2022-08-01T07:06:26;11.38;;;3.28;;
53263;SDS011;39153;52.680;6.172;2022-08-01T07:08:52;13.77;;;3.22;;
53263;SDS011;39153;52.680;6.172;2022-08-01T07:11:19;14.60;;;3.03;;
53263;SDS011;39153;52.680;6.172;2022-08-01T07:13:45;11.73;;;2.85;;
53263;SDS011;39153;52.680;6.172;2022-08-01T07:16:11;14.88;;;2.90;;
53263;SDS011;39153;52.680;6.172;2022-08-01T07:18:37;11.18;;;2.60;;
53263;SDS011;39153;52.680;6.172;2022-08-01T07:21:03;12.20;;;2.80;;
53263;SDS011;39153;52.680;6.172;2022-08-01T07:23:29;14.60;;;3.00;;
53263;SDS011;39153;52.680;6.172;2022-08-01T07:25:54;12.75;;;2.58;;
53263;SDS011;39153;52.680;6.172;2022-08-01T07:28:20;14.18;;;2.58;;
53263;SDS011;39153;52.680;6.172;2022-08-01T07:30:45;15.07;;;2.88;;
53263;SDS011;39153;52.680;6.172;2022-08-01T07:33:11;12.15;;;2.33;;
53263;SDS011;39153;52.680;6.172;2022-08-01T07:35:37;14.35;;;2.88;;
53263;SDS011;39153;52.680;6.172;2022-08-01T07:38:05;12.60;;;3.15;;
53263;SDS011;39153;52.680;6.172;2022-08-01T07:40:31;12.85;;;2.40;;
53263;SDS011;39153;52.680;6.172;2022-08-01T07:42:57;11.48;;;2.55;;
53263;SDS011;39153;52.680;6.172;2022-08-01T07:45:23;16.35;;;4.00;;
53263;SDS011;39153;52.680;6.172;2022-08-01T07:47:48;12.68;;;2.90;;
53263;SDS011;39153;52.680;6.172;2022-08-01T07:50:14;11.95;;;3.10;;
53263;SDS011;39153;52.680;6.172;2022-08-01T07:52:41;13.07;;;3.22;;
53263;SDS011;39153;52.680;6.172;2022-08-01T07:55:08;10.38;;;2.97;;
53263;SDS011;39153;52.680;6.172;2022-08-01T07:57:35;13.50;;;3.00;;
53263;SDS011;39153;52.680;6.172;2022-08-01T08:00:02;15.07;;;2.85;;
53263;SDS011;39153;52.680;6.172;2022-08-01T08:02:29;11.25;;;3.40;;
53263;SDS011;39153;52.680;6.172;2022-08-01T08:04:55;14.32;;;2.72;;
53263;SDS011;39153;52.680;6.172;2022-08-01T08:07:21;13.40;;;2.90;;
53263;SDS011;39153;52.680;6.172;2022-08-01T08:09:46;12.13;;;3.05;;
53263;SDS011;39153;52.680;6.172;2022-08-01T08:12:12;14.15;;;3.08;;
53263;SDS011;39153;52.680;6.172;2022-08-01T08:14:37;18.08;;;3.65;;
53263;SDS011;39153;52.680;6.172;2022-08-01T08:17:04;13.63;;;3.17;;
53263;SDS011;39153;52.680;6.172;2022-08-01T08:19:30;12.23;;;2.92;;
53263;SDS011;39153;52.680;6.172;2022-08-01T08:21:58;10.77;;;2.90;;
53263;SDS011;39153;52.680;6.172;2022-08-01T08:24:24;12.27;;;2.50;;
53263;SDS011;39153;52.680;6.172;2022-08-01T08:26:55;18.63;;;3.08;;
53263;SDS011;39153;52.680;6.172;2022-08-01T08:29:22;12.35;;;2.72;;
53263;SDS011;39153;52.680;6.172;2022-08-01T08:31:49;14.73;;;2.88;;
53263;SDS011;39153;52.680;6.172;2022-08-01T08:34:16;15.52;;;2.85;;
53263;SDS011;39153;52.680;6.172;2022-08-01T08:36:42;16.63;;;2.42;;
53263;SDS011;39153;52.680;6.172;2022-08-01T08:39:07;12.15;;;2.22;;
53263;SDS011;39153;52.680;6.172;2022-08-01T08:41:34;9.45;;;2.13;;
53263;SDS011;39153;52.680;6.172;2022-08-01T08:44:06;8.98;;;2.08;;
53263;SDS011;39153;52.680;6.172;2022-08-01T08:46:34;11.25;;;2.22;;
53263;SDS011;39153;52.680;6.172;2022-08-01T08:49:17;10.55;;;2.03;;
53263;SDS011;39153;52.680;6.172;2022-08-01T08:51:46;11.98;;;2.78;;
53263;SDS011;39153;52.680;6.172;2022-08-01T08:54:14;11.55;;;2.33;;
53263;SDS011;39153;52.680;6.172;2022-08-01T08:56:40;13.75;;;2.88;;
53263;SDS011;39153;52.680;6.172;2022-08-01T08:59:10;10.18;;;2.40;;
53263;SDS011;39153;52.680;6.172;2022-08-01T09:01:38;11.82;;;2.45;;
53263;SDS011;39153;52.680;6.172;2022-08-01T09:04:04;11.73;;;2.30;;
53263;SDS011;39153;52.680;6.172;2022-08-01T09:06:31;12.45;;;2.78;;
53263;SDS011;39153;52.680;6.172;2022-08-01T09:08:57;8.55;;;2.20;;
53263;SDS011;39153;52.680;6.172;2022-08-01T09:11:24;11.70;;;2.67;;
53263;SDS011;39153;52.680;6.172;2022-08-01T09:14:09;10.77;;;2.40;;
53263;SDS011;39153;52.680;6.172;2022-08-01T09:16:37;9.90;;;2.38;;
53263;SDS011;39153;52.680;6.172;2022-08-01T09:19:16;13.63;;;3.05;;
53263;SDS011;39153;52.680;6.172;2022-08-01T09:21:57;10.50;;;2.13;;
53263;SDS011;39153;52.680;6.172;2022-08-01T09:24:26;12.95;;;2.35;;
53263;SDS011;39153;52.680;6.172;2022-08-01T09:26:53;8.75;;;2.20;;
53263;SDS011;39153;52.680;6.172;2022-08-01T09:29:20;10.57;;;2.05;;
53263;SDS011;39153;52.680;6.172;2022-08-01T09:31:51;12.85;;;2.85;;
53263;SDS011;39153;52.680;6.172;2022-08-01T09:34:23;10.43;;;2.42;;
53263;SDS011;39153;52.680;6.172;2022-08-01T09:36:55;10.10;;;2.42;;
53263;SDS011;39153;52.680;6.172;2022-08-01T09:39:24;17.63;;;2.92;;
53263;SDS011;39153;52.680;6.172;2022-08-01T09:41:50;8.38;;;2.03;;
53263;SDS011;39153;52.680;6.172;2022-08-01T09:44:17;12.43;;;1.95;;
53263;SDS011;39153;52.680;6.172;2022-08-01T09:46:52;8.82;;;1.88;;
53263;SDS011;39153;52.680;6.172;2022-08-01T09:49:26;15.00;;;2.30;;
53263;SDS011;39153;52.680;6.172;2022-08-01T09:51:58;7.90;;;2.45;;
53263;SDS011;39153;52.680;6.172;2022-08-01T09:54:34;9.93;;;2.45;;
53263;SDS011;39153;52.680;6.172;2022-08-01T09:57:14;9.30;;;2.13;;
53263;SDS011;39153;52.680;6.172;2022-08-01T09:59:42;8.98;;;1.70;;
53263;SDS011;39153;52.680;6.172;2022-08-01T10:02:12;7.95;;;1.60;;
53263;SDS011;39153;52.680;6.172;2022-08-01T10:04:47;8.40;;;2.13;;
53263;SDS011;39153;52.680;6.172;2022-08-01T10:07:14;7.82;;;1.70;;
53263;SDS011;39153;52.680;6.172;2022-08-01T10:09:41;11.07;;;2.20;;
53263;SDS011;39153;52.680;6.172;2022-08-01T10:12:08;8.40;;;1.80;;
53263;SDS011;39153;52.680;6.172;2022-08-01T10:14:35;8.32;;;2.20;;
53263;SDS011;39153;52.680;6.172;2022-08-01T10:17:02;11.23;;;2.35;;
53263;SDS011;39153;52.680;6.172;2022-08-01T10:19:31;8.73;;;2.08;;
53263;SDS011;39153;52.680;6.172;2022-08-01T10:21:59;6.90;;;1.88;;
53263;SDS011;39153;52.680;6.172;2022-08-01T10:24:27;11.90;;;2.53;;
53263;SDS011;39153;52.680;6.172;2022-08-01T10:26:55;9.45;;;2.28;;
53263;SDS011;39153;52.680;6.172;2022-08-01T10:29:27;6.25;;;1.83;;
53263;SDS011;39153;52.680;6.172;2022-08-01T10:31:56;8.32;;;1.80;;
53263;SDS011;39153;52.680;6.172;2022-08-01T10:34:22;4.95;;;1.50;;
53263;SDS011;39153;52.680;6.172;2022-08-01T10:36:49;7.13;;;1.55;;
53263;SDS011;39153;52.680;6.172;2022-08-01T10:39:15;7.03;;;1.65;;
53263;SDS011;39153;52.680;6.172;2022-08-01T10:41:42;6.78;;;1.40;;
53263;SDS011;39153;52.680;6.172;2022-08-01T10:44:08;6.35;;;1.27;;
53263;SDS011;39153;52.680;6.172;2022-08-01T10:46:38;5.10;;;1.20;;
53263;SDS011;39153;52.680;6.172;2022-08-01T10:49:10;5.25;;;1.33;;
53263;SDS011;39153;52.680;6.172;2022-08-01T10:51:38;5.85;;;1.45;;
53263;SDS011;39153;52.680;6.172;2022-08-01T10:54:11;8.48;;;1.50;;
53263;SDS011;39153;52.680;6.172;2022-08-01T10:56:49;4.53;;;1.08;;
53263;SDS011;39153;52.680;6.172;2022-08-01T10:59:28;5.85;;;1.20;;
53263;SDS011;39153;52.680;6.172;2022-08-01T11:01:59;8.23;;;1.63;;
53263;SDS011;39153;52.680;6.172;2022-08-01T11:07:16;9.63;;;1.52;;
53263;SDS011;39153;52.680;6.172;2022-08-01T11:09:45;4.63;;;1.13;;
53263;SDS011;39153;52.680;6.172;2022-08-01T11:12:15;5.93;;;1.50;;
53263;SDS011;39153;52.680;6.172;2022-08-01T11:17:42;6.97;;;1.50;;
53263;SDS011;39153;52.680;6.172;2022-08-01T11:25:22;6.13;;;1.42;;
53263;SDS011;39153;52.680;6.172;2022-08-01T11:27:48;7.18;;;1.40;;
53263;SDS011;39153;52.680;6.172;2022-08-01T11:32:50;5.55;;;1.88;;
53263;SDS011;39153;52.680;6.172;2022-08-01T11:35:23;6.95;;;1.45;;
53263;SDS011;39153;52.680;6.172;2022-08-01T11:37:52;3.75;;;1.20;;
53263;SDS011;39153;52.680;6.172;2022-08-01T11:40:24;6.07;;;1.38;;
53263;SDS011;39153;52.680;6.172;2022-08-01T11:43:37;5.25;;;1.10;;
53263;SDS011;39153;52.680;6.172;2022-08-01T11:45:48;9.32;;;1.40;;
53263;SDS011;39153;52.680;6.172;2022-08-01T11:48:19;7.43;;;1.58;;
53263;SDS011;39153;52.680;6.172;2022-08-01T11:50:52;6.95;;;1.30;;
53263;SDS011;39153;52.680;6.172;2022-08-01T11:53:22;4.95;;;1.10;;
53263;SDS011;39153;52.680;6.172;2022-08-01T11:55:49;4.03;;;0.95;;
53263;SDS011;39153;52.680;6.172;2022-08-01T11:58:22;5.32;;;1.20;;
53263;SDS011;39153;52.680;6.172;2022-08-01T12:00:50;3.63;;;1.00;;
53263;SDS011;39153;52.680;6.172;2022-08-01T12:03:22;4.85;;;1.00;;
53263;SDS011;39153;52.680;6.172;2022-08-01T12:05:53;3.05;;;0.90;;
53263;SDS011;39153;52.680;6.172;2022-08-01T12:08:26;7.05;;;0.90;;
53263;SDS011;39153;52.680;6.172;2022-08-01T12:10:52;5.65;;;1.00;;
53263;SDS011;39153;52.680;6.172;2022-08-01T12:13:19;5.70;;;1.40;;
53263;SDS011;39153;52.680;6.172;2022-08-01T12:15:45;3.92;;;1.00;;
53263;SDS011;39153;52.680;6.172;2022-08-01T12:18:12;6.22;;;1.05;;
53263;SDS011;39153;52.680;6.172;2022-08-01T12:20:39;6.60;;;1.48;;
53263;SDS011;39153;52.680;6.172;2022-08-01T12:23:10;6.35;;;1.42;;
53263;SDS011;39153;52.680;6.172;2022-08-01T12:25:37;7.88;;;1.40;;
53263;SDS011;39153;52.680;6.172;2022-08-01T12:28:05;5.40;;;1.17;;
53263;SDS011;39153;52.680;6.172;2022-08-01T12:30:32;6.35;;;1.10;;
53263;SDS011;39153;52.680;6.172;2022-08-01T12:33:00;4.97;;;0.95;;
53263;SDS011;39153;52.680;6.172;2022-08-01T12:35:28;4.20;;;0.85;;
53263;SDS011;39153;52.680;6.172;2022-08-01T12:37:59;5.47;;;0.98;;
53263;SDS011;39153;52.680;6.172;2022-08-01T12:43:06;3.90;;;0.95;;
53263;SDS011;39153;52.680;6.172;2022-08-01T12:45:34;5.95;;;1.10;;
53263;SDS011;39153;52.680;6.172;2022-08-01T12:48:02;4.10;;;0.93;;
53263;SDS011;39153;52.680;6.172;2022-08-01T12:50:33;3.85;;;0.82;;
53263;SDS011;39153;52.680;6.172;2022-08-01T12:53:01;2.58;;;0.77;;
53263;SDS011;39153;52.680;6.172;2022-08-01T12:55:27;4.88;;;1.02;;
53263;SDS011;39153;52.680;6.172;2022-08-01T12:58:09;5.03;;;1.00;;
53263;SDS011;39153;52.680;6.172;2022-08-01T13:00:38;6.03;;;1.10;;
53263;SDS011;39153;52.680;6.172;2022-08-01T13:03:11;6.03;;;1.10;;
53263;SDS011;39153;52.680;6.172;2022-08-01T13:05:48;1.90;;;0.70;;
53263;SDS011;39153;52.680;6.172;2022-08-01T13:08:16;3.40;;;0.88;;
53263;SDS011;39153;52.680;6.172;2022-08-01T13:10:44;4.75;;;1.10;;
53263;SDS011;39153;52.680;6.172;2022-08-01T13:13:10;6.03;;;1.10;;
53263;SDS011;39153;52.680;6.172;2022-08-01T13:15:38;4.55;;;1.25;;
53263;SDS011;39153;52.680;6.172;2022-08-01T13:21:10;5.25;;;0.95;;
53263;SDS011;39153;52.680;6.172;2022-08-01T13:23:39;5.00;;;1.13;;
53263;SDS011;39153;52.680;6.172;2022-08-01T13:26:06;6.07;;;1.00;;
53263;SDS011;39153;52.680;6.172;2022-08-01T13:28:31;3.83;;;0.85;;
53263;SDS011;39153;52.680;6.172;2022-08-01T13:33:43;6.90;;;0.75;;
53263;SDS011;39153;52.680;6.172;2022-08-01T13:36:09;5.55;;;1.05;;
53263;SDS011;39153;52.680;6.172;2022-08-01T13:38:35;5.70;;;1.17;;
53263;SDS011;39153;52.680;6.172;2022-08-01T13:41:19;4.15;;;0.90;;
53263;SDS011;39153;52.680;6.172;2022-08-01T13:43:45;5.95;;;1.10;;
53263;SDS011;39153;52.680;6.172;2022-08-01T13:46:11;5.50;;;1.00;;
53263;SDS011;39153;52.680;6.172;2022-08-01T13:48:37;5.82;;;1.10;;
53263;SDS011;39153;52.680;6.172;2022-08-01T13:51:02;3.55;;;0.70;;
53263;SDS011;39153;52.680;6.172;2022-08-01T13:53:28;6.65;;;1.20;;
53263;SDS011;39153;52.680;6.172;2022-08-01T13:55:54;4.22;;;0.90;;
53263;SDS011;39153;52.680;6.172;2022-08-01T13:58:20;4.97;;;1.00;;
53263;SDS011;39153;52.680;6.172;2022-08-01T14:00:46;3.85;;;0.90;;
53263;SDS011;39153;52.680;6.172;2022-08-01T14:03:12;4.80;;;1.00;;
53263;SDS011;39153;52.680;6.172;2022-08-01T14:05:38;3.88;;;0.70;;
53263;SDS011;39153;52.680;6.172;2022-08-01T14:08:04;6.07;;;0.77;;
53263;SDS011;39153;52.680;6.172;2022-08-01T14:10:30;4.95;;;0.80;;
53263;SDS011;39153;52.680;6.172;2022-08-01T14:12:56;4.70;;;0.80;;
53263;SDS011;39153;52.680;6.172;2022-08-01T14:15:23;4.95;;;0.90;;
53263;SDS011;39153;52.680;6.172;2022-08-01T14:17:49;6.75;;;1.23;;
53263;SDS011;39153;52.680;6.172;2022-08-01T14:20:15;2.55;;;0.80;;
53263;SDS011;39153;52.680;6.172;2022-08-01T14:22:44;4.57;;;0.90;;
53263;SDS011;39153;52.680;6.172;2022-08-01T14:25:11;5.28;;;0.88;;
53263;SDS011;39153;52.680;6.172;2022-08-01T14:27:37;4.38;;;0.90;;
53263;SDS011;39153;52.680;6.172;2022-08-01T14:30:05;4.72;;;1.00;;
53263;SDS011;39153;52.680;6.172;2022-08-01T14:32:31;5.78;;;0.80;;
53263;SDS011;39153;52.680;6.172;2022-08-01T14:34:58;5.95;;;0.90;;
53263;SDS011;39153;52.680;6.172;2022-08-01T14:37:24;7.43;;;1.20;;
53263;SDS011;39153;52.680;6.172;2022-08-01T14:39:50;4.75;;;1.13;;
53263;SDS011;39153;52.680;6.172;2022-08-01T14:42:15;5.78;;;1.02;;
53263;SDS011;39153;52.680;6.172;2022-08-01T14:44:41;4.57;;;0.90;;
53263;SDS011;39153;52.680;6.172;2022-08-01T14:47:07;5.40;;;1.10;;
53263;SDS011;39153;52.680;6.172;2022-08-01T14:49:33;4.30;;;0.95;;
53263;SDS011;39153;52.680;6.172;2022-08-01T14:51:58;4.57;;;0.82;;
53263;SDS011;39153;52.680;6.172;2022-08-01T14:54:24;2.47;;;0.55;;
53263;SDS011;39153;52.680;6.172;2022-08-01T14:56:50;6.05;;;0.95;;
53263;SDS011;39153;52.680;6.172;2022-08-01T14:59:18;3.58;;;0.70;;
53263;SDS011;39153;52.680;6.172;2022-08-01T15:01:44;3.55;;;0.88;;
53263;SDS011;39153;52.680;6.172;2022-08-01T15:04:10;4.47;;;0.88;;
53263;SDS011;39153;52.680;6.172;2022-08-01T15:06:35;3.53;;;0.70;;
53263;SDS011;39153;52.680;6.172;2022-08-01T15:09:01;3.58;;;0.80;;
53263;SDS011;39153;52.680;6.172;2022-08-01T15:11:28;4.57;;;0.90;;
53263;SDS011;39153;52.680;6.172;2022-08-01T15:13:53;3.90;;;0.90;;
53263;SDS011;39153;52.680;6.172;2022-08-01T15:16:38;4.95;;;0.90;;
53263;SDS011;39153;52.680;6.172;2022-08-01T15:19:03;3.35;;;0.52;;
53263;SDS011;39153;52.680;6.172;2022-08-01T15:21:29;3.13;;;0.73;;